LFRV

Details ICAO LFRV (VNE)
Name Vannes Meucon
Region France
Timezone Europe/Paris (UTC+2.0)
Plans Departing 21
Arriving 31
Stats Elevation 439 ft / 134 m (AMSL)
Location 47.723264° -2.718513°
Runways 1
Magnetic Variation 0.862° W
Sunrise 2018-05-21 04:27:46 UTC / 2018-05-21 06:27:46 Local
Sunset 2018-05-21 19:50:01 UTC / 2018-05-21 21:50:01 Local
Advertisement - Login to hide

Runways

ID Width Length Bearing (true) Bearing (mag) Surface Threshold Offset Overrun Length
04 148 ft / 45 m 5,006 ft / 1,526 m 39.13° 39.99° Asphalt 0 ft / 0 m 0 ft / 0 m
22 148 ft / 45 m 5,006 ft / 1,526 m 219.14° 220.00° Asphalt 0 ft / 0 m 0 ft / 0 m

Approach Navaids

Runway Type Ident Frequency Range Bearing (true) Bearing (mag) Slope Elevation
22 Localiser VNS 110.70 MHz 18 nm / 33 km 219.13° 220.00° - 432 ft / 132 m (AMSL)

Map

Weather


0- 5 10 15 20 25 30 35+ Temperature / ° C

Clouds and Precipitation
Forecast for 2018-05-21 18:00 UTC. Updated 3 hours ago

Ground ~20,000 ft ~40,000 ft Winds

METAR

LFRV 212030Z AUTO 01009KT CAVOK 16/10 Q1013

TAF

Not found

Frequencies

Unicom 122.60 MHz VANNES MULT
Tower 122.60 MHz VANNES TWR
Warning: Do not use this data for real-world aviation or navigation. No guarantee of current accuracy is given.